Time;durP1;ratioP1;P1;durP2;ratioP2;P2;SDS_P1;SDS_P2;PMS_P1;PMS_P2;Temp;Humidity;BMP_temperature;BMP_pressure;BME280_temperature;BME280_humidity;BME280_pressure;Samples;Min_cycle;Max_cycle;Signal;HPM_P1;HPM_P2
2022/04/20 00:01:23;;;;;;;0.37;0.37;;;8.80;99.90;;;;;;4431254;32;20085;-68
2022/04/20 00:03:49;;;;;;;0.28;0.28;;;8.90;99.90;;;;;;4427493;32;20142;-68
2022/04/20 00:06:14;;;;;;;0.35;0.35;;;9.00;99.90;;;;;;4427766;32;20380;-68
2022/04/20 00:08:41;;;;;;;0.40;0.40;;;8.90;99.90;;;;;;4432800;32;20065;-68
2022/04/20 00:11:07;;;;;;;3.35;0.65;;;8.90;99.90;;;;;;4430281;32;20092;-69
2022/04/20 00:13:33;;;;;;;0.30;0.30;;;8.90;99.90;;;;;;4426347;32;20076;-68
2022/04/20 00:15:59;;;;;;;2.92;0.52;;;9.00;99.90;;;;;;4428695;32;20057;-68
2022/04/20 00:18:25;;;;;;;1.62;1.05;;;9.10;99.90;;;;;;4430597;32;20081;-69
2022/04/20 00:20:50;;;;;;;3.45;1.10;;;9.10;99.90;;;;;;4426886;32;20200;-68
2022/04/20 00:23:16;;;;;;;0.68;0.68;;;9.20;99.90;;;;;;4431219;32;20076;-68
2022/04/20 00:25:41;;;;;;;0.45;0.45;;;9.20;99.90;;;;;;4431811;32;20131;-68
2022/04/20 00:28:07;;;;;;;0.43;0.43;;;9.30;99.90;;;;;;4431092;32;20085;-68
2022/04/20 00:30:32;;;;;;;0.20;0.20;;;9.30;99.90;;;;;;4428521;32;20061;-68
2022/04/20 00:32:59;;;;;;;1.58;0.75;;;9.40;99.90;;;;;;4429349;32;20069;-68
2022/04/20 00:35:25;;;;;;;2.08;0.85;;;9.40;99.90;;;;;;4430612;32;20101;-67
2022/04/20 00:37:50;;;;;;;0.65;0.47;;;9.30;99.90;;;;;;4429031;32;20397;-68
2022/04/20 00:40:17;;;;;;;0.70;0.70;;;9.30;99.90;;;;;;4427012;32;20057;-68
2022/04/20 00:42:42;;;;;;;0.40;0.40;;;9.20;99.90;;;;;;4427552;32;20092;-68
2022/04/20 00:45:09;;;;;;;0.35;0.30;;;9.10;99.90;;;;;;4425614;32;20086;-69
2022/04/20 00:47:37;;;;;;;0.50;0.50;;;9.00;99.90;;;;;;4428629;32;20124;-69
2022/04/20 00:50:04;;;;;;;0.77;0.77;;;9.10;99.90;;;;;;4433699;32;20092;-68
2022/04/20 00:52:30;;;;;;;0.40;0.40;;;9.20;99.90;;;;;;4430459;32;20457;-69
2022/04/20 00:54:55;;;;;;;1.05;0.57;;;9.20;99.90;;;;;;4428436;32;20127;-68
2022/04/20 00:57:21;;;;;;;2.95;0.70;;;9.20;99.90;;;;;;4428550;32;20069;-67
2022/04/20 00:59:49;;;;;;;0.40;0.40;;;9.30;99.90;;;;;;4430522;32;20077;-67
2022/04/20 01:02:14;;;;;;;1.50;0.70;;;9.10;99.90;;;;;;4431782;32;20069;-68
2022/04/20 01:04:40;;;;;;;1.65;1.00;;;9.10;99.90;;;;;;4432568;32;20065;-69
2022/04/20 01:07:11;;;;;;;0.55;0.47;;;9.10;99.90;;;;;;4432323;32;20082;-69
2022/04/20 01:09:37;;;;;;;;;;;9.20;99.90;;;;;;4433074;32;20064;-69
2022/04/20 01:12:02;;;;;;;0.60;0.60;;;9.20;99.90;;;;;;4430461;32;20321;-69
2022/04/20 01:14:28;;;;;;;0.30;0.30;;;9.20;99.90;;;;;;4428241;32;20511;-69
2022/04/20 01:16:54;;;;;;;0.30;0.30;;;9.20;99.90;;;;;;4434395;32;20058;-69
2022/04/20 01:19:19;;;;;;;0.40;0.40;;;9.30;99.90;;;;;;4432154;32;20081;-69
2022/04/20 01:21:45;;;;;;;5.30;0.52;;;9.30;99.90;;;;;;4430481;32;20110;-69
2022/04/20 01:24:11;;;;;;;3.55;0.98;;;9.20;99.90;;;;;;4430659;32;20072;-69
2022/04/20 01:26:39;;;;;;;0.30;0.30;;;9.10;99.90;;;;;;4431162;32;20092;-69
2022/04/20 01:29:05;;;;;;;1.17;0.68;;;9.10;99.90;;;;;;4431108;32;20544;-69
2022/04/20 01:31:31;;;;;;;0.65;0.65;;;8.90;99.90;;;;;;4431590;32;20100;-69
2022/04/20 01:33:57;;;;;;;0.30;0.30;;;9.00;99.90;;;;;;4430482;32;20105;-69
2022/04/20 01:36:23;;;;;;;0.62;0.62;;;9.00;99.90;;;;;;4430502;32;20081;-69
2022/04/20 01:38:49;;;;;;;0.35;0.35;;;9.10;99.90;;;;;;4430332;32;20122;-69
2022/04/20 01:41:15;;;;;;;0.47;0.47;;;9.00;99.90;;;;;;4428917;32;20105;-69
2022/04/20 01:43:40;;;;;;;0.40;0.40;;;9.10;99.90;;;;;;4428563;32;20069;-69
2022/04/20 01:46:06;;;;;;;0.50;0.50;;;9.10;99.90;;;;;;4428383;32;20065;-69
2022/04/20 01:48:31;;;;;;;0.95;0.70;;;9.00;99.90;;;;;;4428530;32;20148;-69
2022/04/20 01:51:57;;;;;;;0.40;0.40;;;9.00;99.90;;;;;;4428062;32;20187;-69
2022/04/20 01:53:42;;;;;;;0.30;0.30;;;8.90;99.90;;;;;;4431257;32;20109;-69
2022/04/20 01:56:08;;;;;;;0.45;0.45;;;9.00;99.90;;;;;;4431917;32;20658;-69
2022/04/20 01:58:34;;;;;;;0.52;0.52;;;9.10;99.90;;;;;;4430931;32;20123;-69
2022/04/20 02:01:00;;;;;;;1.30;0.43;;;9.10;99.90;;;;;;4428717;32;20077;-70
2022/04/20 02:03:26;;;;;;;1.17;0.70;;;8.90;99.90;;;;;;4431089;32;20120;-69
2022/04/20 02:05:52;;;;;;;3.30;2.05;;;8.90;99.90;;;;;;4429810;32;20085;-69
2022/04/20 02:08:18;;;;;;;0.50;0.50;;;8.90;99.90;;;;;;4432031;32;20500;-69
2022/04/20 02:10:43;;;;;;;0.30;0.30;;;8.80;99.90;;;;;;4428364;32;20092;-69
2022/04/20 02:13:09;;;;;;;0.30;0.30;;;8.90;99.90;;;;;;4429272;32;20156;-69
2022/04/20 02:15:34;;;;;;;0.75;0.60;;;8.90;99.90;;;;;;4426211;32;20106;-69
2022/04/20 02:17:59;;;;;;;0.30;0.30;;;8.90;99.90;;;;;;4429489;32;20113;-69
2022/04/20 02:20:25;;;;;;;0.40;0.40;;;8.90;99.90;;;;;;4431294;32;21167;-69
2022/04/20 02:22:51;;;;;;;0.50;0.50;;;8.90;99.90;;;;;;4428291;32;20215;-68
2022/04/20 02:25:16;;;;;;;0.50;0.50;;;8.90;99.90;;;;;;4430456;32;20078;-70
2022/04/20 02:27:43;;;;;;;0.50;0.50;;;9.00;99.90;;;;;;4429803;32;20073;-67
2022/04/20 02:30:09;;;;;;;0.40;0.40;;;8.90;99.90;;;;;;4429183;32;20081;-69
2022/04/20 02:32:35;;;;;;;0.40;0.40;;;8.80;99.90;;;;;;4429324;32;20088;-68
2022/04/20 02:35:00;;;;;;;0.40;0.40;;;8.70;99.90;;;;;;4427152;32;20091;-68
2022/04/20 02:37:26;;;;;;;1.98;1.20;;;8.70;99.90;;;;;;4427653;32;20073;-68
2022/04/20 02:39:51;;;;;;;0.65;0.65;;;8.60;99.90;;;;;;4433237;32;20073;-69
2022/04/20 02:42:17;;;;;;;0.52;0.52;;;8.60;99.90;;;;;;4429911;32;20099;-68
2022/04/20 02:44:43;;;;;;;0.40;0.40;;;8.60;99.90;;;;;;4429727;32;20073;-69
2022/04/20 02:47:09;;;;;;;0.50;0.50;;;8.60;99.90;;;;;;4431371;32;20666;-67
2022/04/20 02:49:35;;;;;;;1.77;0.73;;;8.70;99.90;;;;;;4428555;32;20073;-67
2022/04/20 02:52:01;;;;;;;3.90;1.60;;;8.80;99.90;;;;;;4430220;32;20136;-68
2022/04/20 02:54:27;;;;;;;0.30;0.30;;;8.80;99.90;;;;;;4429606;32;20134;-68
2022/04/20 02:56:53;;;;;;;0.55;0.55;;;8.80;99.90;;;;;;4428950;32;20093;-68
2022/04/20 02:59:19;;;;;;;1.12;0.80;;;8.70;99.90;;;;;;4427859;32;20061;-69
2022/04/20 03:01:44;;;;;;;1.27;0.50;;;8.70;99.90;;;;;;4430076;32;20069;-69
2022/04/20 03:04:10;;;;;;;2.65;1.50;;;8.60;99.90;;;;;;4428439;32;20074;-67
2022/04/20 03:06:36;;;;;;;0.30;0.30;;;8.60;99.90;;;;;;4428377;32;20073;-69
2022/04/20 03:09:02;;;;;;;0.40;0.40;;;8.70;99.90;;;;;;4429767;32;20065;-69
2022/04/20 03:11:28;;;;;;;0.50;0.50;;;8.60;99.90;;;;;;4428700;32;20094;-68
2022/04/20 03:13:54;;;;;;;0.30;0.30;;;8.60;99.90;;;;;;4428887;32;20077;-69
2022/04/20 03:16:19;;;;;;;6.40;0.77;;;8.70;99.90;;;;;;4430991;32;20472;-69
2022/04/20 03:18:45;;;;;;;0.47;0.47;;;8.70;99.90;;;;;;4429127;32;20072;-69
2022/04/20 03:21:10;;;;;;;0.50;0.50;;;8.70;99.90;;;;;;4430569;32;20084;-69
2022/04/20 03:23:36;;;;;;;0.50;0.50;;;8.70;99.90;;;;;;4427448;32;20478;-69
2022/04/20 03:26:01;;;;;;;0.50;0.50;;;8.80;99.90;;;;;;4428776;32;20081;-69
2022/04/20 03:28:27;;;;;;;1.12;1.00;;;8.80;99.90;;;;;;4429024;32;20511;-69
2022/04/20 03:30:52;;;;;;;0.45;0.45;;;8.70;99.90;;;;;;4429117;32;20544;-69
2022/04/20 03:33:18;;;;;;;0.30;0.30;;;8.70;99.90;;;;;;4429324;32;20062;-69
2022/04/20 03:35:44;;;;;;;0.50;0.50;;;8.60;99.90;;;;;;4429979;32;20431;-69
2022/04/20 03:38:10;;;;;;;0.40;0.40;;;8.60;99.90;;;;;;4431975;32;20491;-69
2022/04/20 03:40:36;;;;;;;0.50;0.50;;;8.70;99.90;;;;;;4428891;32;20174;-69
2022/04/20 03:43:02;;;;;;;0.45;0.40;;;8.60;99.90;;;;;;4427948;32;20112;-69
2022/04/20 03:45:28;;;;;;;0.98;0.62;;;8.50;99.90;;;;;;4430666;32;20397;-69
2022/04/20 03:47:53;;;;;;;0.30;0.30;;;8.50;99.90;;;;;;4432269;32;20060;-68
2022/04/20 03:50:19;;;;;;;0.50;0.50;;;8.60;99.90;;;;;;4431329;32;20065;-67
2022/04/20 03:52:45;;;;;;;0.88;0.82;;;8.70;99.90;;;;;;4429560;32;20090;-68
2022/04/20 03:55:11;;;;;;;0.35;0.35;;;8.60;99.90;;;;;;4431987;32;20073;-68
2022/04/20 03:57:36;;;;;;;0.37;0.37;;;8.70;99.90;;;;;;4428492;32;20041;-68
2022/04/20 04:00:04;;;;;;;0.40;0.40;;;8.70;99.90;;;;;;4428097;32;20377;-67
2022/04/20 04:02:29;;;;;;;0.40;0.40;;;8.60;99.90;;;;;;4427008;32;20593;-67
2022/04/20 04:04:55;;;;;;;0.60;0.55;;;8.50;99.90;;;;;;4430778;32;20135;-68
2022/04/20 04:07:20;;;;;;;1.12;0.82;;;8.60;99.90;;;;;;4429276;32;20088;-68
2022/04/20 04:09:46;;;;;;;1.37;0.45;;;8.60;99.90;;;;;;4429730;32;20545;-68
2022/04/20 04:12:11;;;;;;;0.32;0.32;;;8.70;99.90;;;;;;4429039;32;20369;-68
2022/04/20 04:14:38;;;;;;;0.50;0.50;;;8.70;99.90;;;;;;4432326;32;20097;-68
2022/04/20 04:17:04;;;;;;;0.47;0.47;;;8.70;99.90;;;;;;4431004;32;20122;-67
2022/04/20 04:19:30;;;;;;;0.50;0.50;;;8.70;99.90;;;;;;4426366;32;20077;-68
2022/04/20 04:21:56;;;;;;;0.40;0.40;;;8.70;99.90;;;;;;4430517;32;20560;-68
2022/04/20 04:24:38;;;;;;;0.50;0.50;;;8.60;99.90;;;;;;4428442;32;20061;-68
2022/04/20 04:27:05;;;;;;;1.17;0.60;;;8.60;99.90;;;;;;4427969;32;20061;-68
2022/04/20 04:29:31;;;;;;;0.75;0.60;;;8.60;99.90;;;;;;4429733;32;20062;-67
2022/04/20 04:31:58;;;;;;;0.35;0.35;;;8.60;99.90;;;;;;4429331;32;20860;-68
2022/04/20 04:34:23;;;;;;;0.35;0.35;;;8.70;99.90;;;;;;4429824;32;20054;-68
2022/04/20 04:36:51;;;;;;;0.47;0.47;;;8.60;99.90;;;;;;4429667;32;20068;-67
2022/04/20 04:39:20;;;;;;;0.50;0.50;;;8.70;99.90;;;;;;4428499;32;20073;-68
2022/04/20 04:41:46;;;;;;;0.65;0.62;;;8.80;99.90;;;;;;4426476;32;20124;-68
2022/04/20 04:44:12;;;;;;;0.70;0.70;;;8.90;99.90;;;;;;4426820;32;20175;-68
2022/04/20 04:48:38;;;;;;;0.40;0.40;;;8.80;99.90;;;;;;4430105;32;20542;-67
2022/04/20 04:49:23;;;;;;;1.45;0.65;;;8.70;99.90;;;;;;4421907;32;20090;-68
2022/04/20 04:51:49;;;;;;;0.45;0.45;;;8.60;99.90;;;;;;4429713;32;20549;-68
2022/04/20 04:54:15;;;;;;;0.50;0.50;;;8.50;99.90;;;;;;4427984;32;20112;-69
2022/04/20 04:56:40;;;;;;;3.87;0.95;;;8.70;99.90;;;;;;4433375;32;20131;-67
2022/04/20 04:59:06;;;;;;;0.98;0.70;;;8.80;99.90;;;;;;4429100;32;20768;-67
2022/04/20 05:01:31;;;;;;;0.47;0.47;;;8.80;99.90;;;;;;4430491;32;20081;-68
2022/04/20 05:03:57;;;;;;;19.02;1.42;;;8.90;99.90;;;;;;4429581;32;20116;-68
2022/04/20 05:06:22;;;;;;;3.12;0.77;;;8.90;99.90;;;;;;4428777;32;20092;-68
2022/04/20 05:08:47;;;;;;;3.20;0.73;;;8.80;99.90;;;;;;4427771;32;20752;-68
2022/04/20 05:11:13;;;;;;;0.40;0.40;;;8.80;99.90;;;;;;4426491;32;20101;-68
2022/04/20 05:13:39;;;;;;;0.50;0.50;;;8.90;99.90;;;;;;4417584;32;20109;-68
2022/04/20 05:16:05;;;;;;;0.37;0.37;;;8.90;99.90;;;;;;4419955;32;20158;-68
2022/04/20 05:18:30;;;;;;;0.75;0.75;;;9.00;99.90;;;;;;4423015;32;20085;-68
2022/04/20 05:20:56;;;;;;;10.75;2.37;;;9.10;99.90;;;;;;4431149;32;20081;-68
2022/04/20 05:23:21;;;;;;;0.62;0.62;;;9.20;99.90;;;;;;4428827;32;20525;-68
2022/04/20 05:25:48;;;;;;;0.82;0.82;;;9.30;99.90;;;;;;4429442;32;20471;-67
2022/04/20 05:28:13;;;;;;;1.70;0.80;;;9.50;99.90;;;;;;4426973;32;21131;-67
2022/04/20 05:30:40;;;;;;;0.60;0.60;;;9.50;99.90;;;;;;4427893;32;20077;-67
2022/04/20 05:33:05;;;;;;;6.60;0.95;;;9.50;99.90;;;;;;4431914;32;20119;-68
2022/04/20 05:35:31;;;;;;;0.57;0.57;;;9.50;99.90;;;;;;4431413;32;20086;-68
2022/04/20 05:41:42;;;;;;;2.00;0.50;;;9.50;99.90;;;;;;4422795;32;20082;-67
2022/04/20 05:43:27;;;;;;;0.60;0.60;;;9.50;99.90;;;;;;4410282;32;20070;-68
2022/04/20 05:45:53;;;;;;;1.55;1.25;;;9.60;99.90;;;;;;4430703;32;20076;-68
2022/04/20 05:48:19;;;;;;;0.30;0.30;;;9.60;99.90;;;;;;4429633;32;20148;-69
2022/04/20 05:50:45;;;;;;;0.30;0.30;;;9.60;99.90;;;;;;4432815;32;20073;-67
2022/04/20 05:53:11;;;;;;;2.00;0.62;;;9.60;99.90;;;;;;4433056;32;20132;-68
2022/04/20 05:55:37;;;;;;;0.40;0.40;;;9.60;99.90;;;;;;4429571;32;20065;-69
2022/04/20 05:58:02;;;;;;;1.17;0.60;;;9.70;99.90;;;;;;4430265;32;20077;-67
2022/04/20 06:00:28;;;;;;;0.55;0.55;;;9.80;99.90;;;;;;4432011;32;20124;-67
2022/04/20 06:02:55;;;;;;;0.40;0.40;;;9.80;99.90;;;;;;4431958;32;20086;-68
2022/04/20 06:05:21;;;;;;;0.43;0.43;;;9.80;99.90;;;;;;4431368;32;20090;-68
2022/04/20 06:07:47;;;;;;;1.12;0.75;;;9.80;99.90;;;;;;4430973;32;20076;-68
2022/04/20 06:10:13;;;;;;;0.40;0.40;;;9.80;99.90;;;;;;4428604;32;20061;-68
2022/04/20 06:12:38;;;;;;;1.45;0.93;;;9.80;99.90;;;;;;4421924;32;20516;-68
2022/04/20 06:15:06;;;;;;;0.57;0.55;;;9.90;99.90;;;;;;4430816;32;20076;-67
2022/04/20 06:17:31;;;;;;;0.62;0.52;;;10.00;99.90;;;;;;4429020;32;20426;-69
2022/04/20 06:19:57;;;;;;;0.45;0.45;;;9.90;99.90;;;;;;4433812;32;20069;-67
2022/04/20 06:22:22;;;;;;;0.60;0.60;;;9.90;99.90;;;;;;4429620;32;20120;-69
2022/04/20 06:24:48;;;;;;;0.30;0.30;;;9.90;99.90;;;;;;4428151;32;20628;-68
2022/04/20 06:27:13;;;;;;;0.35;0.35;;;10.00;99.90;;;;;;4431271;32;20084;-68
2022/04/20 06:29:39;;;;;;;1.27;1.12;;;10.10;99.90;;;;;;4428473;32;20116;-69
2022/04/20 06:32:06;;;;;;;0.40;0.40;;;10.30;99.90;;;;;;4432730;32;20074;-68
2022/04/20 06:34:32;;;;;;;1.55;1.20;;;10.40;99.90;;;;;;4432575;32;20067;-68
2022/04/20 06:36:57;;;;;;;0.57;0.57;;;10.30;99.90;;;;;;4428449;32;20089;-68
2022/04/20 06:39:23;;;;;;;0.65;0.65;;;10.30;99.90;;;;;;4428953;32;20073;-68
2022/04/20 06:41:48;;;;;;;1.23;0.80;;;10.40;99.90;;;;;;4427648;32;20124;-68
2022/04/20 06:44:14;;;;;;;0.32;0.32;;;10.40;99.90;;;;;;4421972;32;20480;-69
2022/04/20 06:46:39;;;;;;;0.60;0.60;;;10.50;99.90;;;;;;4432280;32;20112;-68
2022/04/20 06:49:06;;;;;;;0.32;0.32;;;10.50;99.90;;;;;;4430101;32;20081;-68
2022/04/20 06:58:31;;;;;;;0.40;0.40;;;10.50;99.90;;;;;;4428722;32;20061;-68
2022/04/20 06:59:03;;;;;;;0.50;0.50;;;10.50;99.90;;;;;;4419415;32;20468;-68
2022/04/20 06:59:50;;;;;;;0.50;0.50;;;10.50;99.90;;;;;;4422207;32;20069;-68
2022/04/20 07:02:15;;;;;;;1.30;0.60;;;10.50;99.90;;;;;;4427401;32;20065;-68
2022/04/20 07:04:41;;;;;;;0.40;0.40;;;10.50;99.90;;;;;;4432695;32;20080;-68
2022/04/20 07:07:06;;;;;;;1.95;1.60;;;10.50;99.90;;;;;;4430302;32;20069;-69
2022/04/20 07:09:32;;;;;;;0.50;0.50;;;10.50;99.90;;;;;;4430242;32;20105;-68
2022/04/20 07:11:57;;;;;;;5.40;1.02;;;10.70;99.90;;;;;;4423145;32;20097;-68
2022/04/20 07:14:23;;;;;;;1.45;0.80;;;10.80;99.90;;;;;;4426204;32;20065;-68
2022/04/20 07:16:48;;;;;;;0.60;0.60;;;10.90;99.90;;;;;;4429151;32;20061;-69
2022/04/20 07:19:14;;;;;;;0.30;0.30;;;10.90;99.90;;;;;;4431205;32;20076;-68
2022/04/20 07:21:39;;;;;;;0.50;0.50;;;10.80;99.90;;;;;;4428429;32;20057;-69
2022/04/20 07:24:05;;;;;;;2.33;0.52;;;10.70;99.90;;;;;;4432101;32;20068;-68
2022/04/20 07:26:30;;;;;;;0.70;0.70;;;10.90;99.90;;;;;;4428820;32;20088;-69
2022/04/20 07:28:56;;;;;;;1.15;0.75;;;10.90;99.90;;;;;;4430930;32;20595;-68
2022/04/20 07:31:21;;;;;;;0.30;0.30;;;10.90;99.90;;;;;;4432011;32;20065;-68
2022/04/20 07:33:47;;;;;;;0.40;0.40;;;10.80;99.90;;;;;;4430213;32;20127;-67
2022/04/20 07:36:13;;;;;;;0.82;0.77;;;10.60;99.90;;;;;;4425491;32;85253;-68
2022/04/20 07:38:38;;;;;;;1.17;0.75;;;10.70;99.90;;;;;;4428050;32;20069;-68
2022/04/20 07:41:04;;;;;;;0.35;0.35;;;10.70;99.90;;;;;;4427990;32;20061;-68
2022/04/20 07:43:29;;;;;;;0.77;0.77;;;10.80;99.90;;;;;;4420092;32;20065;-68
2022/04/20 07:45:55;;;;;;;0.30;0.30;;;10.90;99.90;;;;;;4430091;32;20072;-68
2022/04/20 07:48:21;;;;;;;1.25;0.95;;;11.00;99.90;;;;;;4430442;32;20506;-68
2022/04/20 07:50:46;;;;;;;0.30;0.30;;;11.10;99.90;;;;;;4432661;32;20179;-69
2022/04/20 07:53:12;;;;;;;4.70;1.50;;;11.20;99.90;;;;;;4432147;32;20124;-69
2022/04/20 07:55:38;;;;;;;0.40;0.40;;;11.30;99.90;;;;;;4433168;32;20475;-68
2022/04/20 07:58:04;;;;;;;0.60;0.60;;;11.40;99.90;;;;;;4428907;32;20066;-69
2022/04/20 08:00:30;;;;;;;1.10;0.62;;;11.30;99.90;;;;;;4429050;32;20090;-68
2022/04/20 08:03:14;;;;;;;0.40;0.40;;;11.20;99.90;;;;;;4428972;32;20085;-68
2022/04/20 08:05:40;;;;;;;1.25;0.70;;;11.30;99.90;;;;;;4430247;32;20580;-69
2022/04/20 08:08:07;;;;;;;0.77;0.40;;;11.40;99.90;;;;;;4428249;32;20069;-69
2022/04/20 08:10:33;;;;;;;0.50;0.50;;;11.60;99.90;;;;;;4428117;32;21303;-69
2022/04/20 08:12:58;;;;;;;0.37;0.37;;;11.70;99.90;;;;;;4419398;32;20065;-68
2022/04/20 08:15:24;;;;;;;0.73;0.73;;;11.80;99.90;;;;;;4427100;32;20530;-69
2022/04/20 08:17:49;;;;;;;0.50;0.50;;;12.20;99.90;;;;;;4428096;32;20116;-69
2022/04/20 08:20:15;;;;;;;0.30;0.30;;;12.50;99.90;;;;;;4431007;32;20082;-69
2022/04/20 08:22:43;;;;;;;0.43;0.43;;;12.60;99.90;;;;;;4430174;32;20072;-69
2022/04/20 08:25:10;;;;;;;0.40;0.40;;;12.70;99.90;;;;;;4431776;32;20069;-69
2022/04/20 08:27:36;;;;;;;0.68;0.68;;;12.70;99.90;;;;;;4428234;32;20089;-68
2022/04/20 08:30:02;;;;;;;0.20;0.20;;;12.70;99.90;;;;;;4430469;32;20074;-69
2022/04/20 08:32:28;;;;;;;0.50;0.50;;;12.70;99.60;;;;;;4430073;32;20132;-69
2022/04/20 08:34:53;;;;;;;1.25;0.80;;;12.80;99.30;;;;;;4429989;32;20138;-68
2022/04/20 08:37:19;;;;;;;0.22;0.22;;;12.80;99.70;;;;;;4428598;32;20090;-68
2022/04/20 08:39:44;;;;;;;0.28;0.28;;;12.90;99.90;;;;;;4429419;32;20086;-70
2022/04/20 08:42:12;;;;;;;9.40;0.73;;;12.70;99.00;;;;;;4421608;32;20078;-68
2022/04/20 08:44:43;;;;;;;0.30;0.30;;;12.70;99.30;;;;;;4425367;32;20072;-68
2022/04/20 08:47:14;;;;;;;0.37;0.37;;;12.70;99.20;;;;;;4431273;32;20090;-68
2022/04/20 08:49:42;;;;;;;0.30;0.30;;;12.70;98.40;;;;;;4434442;32;20062;-68
2022/04/20 08:52:42;;;;;;;1.48;0.90;;;12.80;96.80;;;;;;4426626;32;20076;-68
2022/04/20 08:54:56;;;;;;;0.32;0.32;;;12.80;96.80;;;;;;4424693;32;20080;-68
2022/04/20 08:57:25;;;;;;;0.50;0.50;;;12.90;97.00;;;;;;4431008;32;20861;-68
2022/04/20 08:59:51;;;;;;;0.40;0.40;;;13.00;96.80;;;;;;4427026;32;20070;-68
2022/04/20 09:02:18;;;;;;;0.47;0.47;;;13.00;96.50;;;;;;4430307;32;20089;-68
2022/04/20 09:04:44;;;;;;;1.10;0.93;;;13.00;96.60;;;;;;4427771;32;20090;-68
2022/04/20 09:07:11;;;;;;;0.43;0.43;;;12.90;95.60;;;;;;4431411;32;20080;-68
2022/04/20 09:09:38;;;;;;;1.15;0.65;;;12.90;95.90;;;;;;4431490;32;20091;-68
2022/04/20 09:12:10;;;;;;;0.30;0.30;;;12.70;96.30;;;;;;4426590;32;20574;-68
2022/04/20 09:14:36;;;;;;;0.70;0.57;;;12.80;96.70;;;;;;4428150;32;20061;-68
2022/04/20 09:17:02;;;;;;;0.40;0.40;;;12.90;96.60;;;;;;4432412;32;20492;-68
2022/04/20 09:19:28;;;;;;;0.30;0.30;;;13.00;96.40;;;;;;4430607;32;20062;-68
2022/04/20 09:21:55;;;;;;;0.55;0.37;;;12.90;96.70;;;;;;4431556;32;20073;-68
2022/04/20 09:24:21;;;;;;;0.70;0.50;;;12.70;97.00;;;;;;4431587;32;20065;-68
2022/04/20 09:27:03;;;;;;;0.43;0.43;;;12.60;97.50;;;;;;4433965;32;20484;-68
2022/04/20 09:29:29;;;;;;;0.30;0.30;;;12.60;97.80;;;;;;4433278;32;20110;-68
2022/04/20 09:31:54;;;;;;;0.30;0.30;;;12.70;98.90;;;;;;4431441;32;20068;-69
2022/04/20 09:34:53;;;;;;;0.75;0.70;;;12.80;99.90;;;;;;4430230;32;20069;-68
2022/04/20 09:37:20;;;;;;;0.45;0.45;;;12.60;99.90;;;;;;4433352;32;20524;-69
2022/04/20 09:39:46;;;;;;;0.40;0.40;;;12.30;99.90;;;;;;4430592;32;20081;-68
2022/04/20 09:42:13;;;;;;;0.40;0.40;;;12.20;99.90;;;;;;4423675;32;20069;-67
2022/04/20 09:44:54;;;;;;;0.30;0.30;;;12.20;99.90;;;;;;4427979;32;20073;-68
2022/04/20 09:48:53;;;;;;;;;;;12.20;99.90;;;;;;4430585;32;20476;-69
2022/04/20 09:50:07;;;;;;;0.35;0.35;;;12.10;99.90;;;;;;4427383;32;20403;-68
2022/04/20 09:52:42;;;;;;;0.40;0.40;;;12.00;99.90;;;;;;4427553;32;20137;-69
2022/04/20 09:55:12;;;;;;;0.30;0.30;;;12.10;99.90;;;;;;4434231;32;20065;-68
2022/04/20 09:57:38;;;;;;;0.30;0.30;;;12.10;99.90;;;;;;4431600;32;20101;-68
2022/04/20 10:00:08;;;;;;;0.30;0.30;;;11.90;99.90;;;;;;4428522;32;20517;-68
2022/04/20 10:02:37;;;;;;;0.75;0.75;;;11.80;99.90;;;;;;4427936;32;20053;-68
2022/04/20 10:05:03;;;;;;;0.45;0.45;;;11.70;99.90;;;;;;4431253;32;20093;-68
2022/04/20 10:07:29;;;;;;;0.30;0.30;;;11.70;99.90;;;;;;4429727;32;20065;-69
2022/04/20 10:09:54;;;;;;;0.30;0.30;;;11.70;99.90;;;;;;4432372;32;20069;-68
2022/04/20 10:12:21;;;;;;;0.30;0.30;;;11.70;99.90;;;;;;4421305;32;20910;-69
2022/04/20 10:16:07;;;;;;;2.65;0.93;;;11.60;99.90;;;;;;4428260;32;20108;-68
2022/04/20 10:17:44;;;;;;;0.40;0.40;;;11.70;99.90;;;;;;4421311;32;20061;-68
2022/04/20 10:20:11;;;;;;;0.30;0.30;;;11.80;99.90;;;;;;4432232;32;20061;-68
2022/04/20 10:22:37;;;;;;;2.83;0.82;;;11.80;99.90;;;;;;4431494;32;20077;-69
2022/04/20 10:25:06;;;;;;;0.57;0.57;;;11.80;99.90;;;;;;4428625;32;20065;-69
2022/04/20 10:27:43;;;;;;;0.40;0.40;;;11.70;99.90;;;;;;4432457;32;20085;-69
2022/04/20 10:30:16;;;;;;;1.00;0.65;;;11.70;99.90;;;;;;4428641;32;20144;-69
2022/04/20 10:32:51;;;;;;;0.57;0.57;;;11.80;99.90;;;;;;4430742;32;20065;-69
2022/04/20 10:35:17;;;;;;;0.40;0.40;;;11.90;99.90;;;;;;4428580;32;20235;-69
2022/04/20 10:38:07;;;;;;;0.40;0.40;;;11.80;99.90;;;;;;4433352;32;21220;-69
2022/04/20 10:40:33;;;;;;;0.30;0.30;;;12.00;99.90;;;;;;4428448;32;20096;-68
2022/04/20 10:43:20;;;;;;;0.37;0.37;;;12.00;99.90;;;;;;4422097;32;20057;-68
2022/04/20 10:46:02;;;;;;;0.30;0.30;;;12.10;99.90;;;;;;4417186;32;20077;-69
2022/04/20 10:48:53;;;;;;;0.50;0.50;;;12.20;99.90;;;;;;4427819;32;20104;-69
2022/04/20 10:51:23;;;;;;;0.50;0.50;;;12.10;99.90;;;;;;4427533;32;20097;-68
2022/04/20 10:53:51;;;;;;;0.25;0.25;;;12.10;99.90;;;;;;4423300;32;20394;-69
2022/04/20 10:56:18;;;;;;;0.32;0.32;;;12.10;99.90;;;;;;4428039;32;20552;-69
2022/04/20 10:59:07;;;;;;;0.50;0.50;;;12.10;99.90;;;;;;4432541;32;20131;-69
2022/04/20 11:02:10;;;;;;;0.30;0.30;;;12.00;99.90;;;;;;4429050;32;20106;-69
2022/04/20 11:04:41;;;;;;;9.60;0.55;;;12.30;99.90;;;;;;4430774;32;20100;-69
2022/04/20 11:07:09;;;;;;;0.40;0.40;;;12.20;99.90;;;;;;4430903;32;20062;-69
2022/04/20 11:09:56;;;;;;;2.70;0.50;;;12.20;99.90;;;;;;4428878;32;20084;-69
2022/04/20 11:18:51;;;;;;;1.35;0.40;;;12.10;99.90;;;;;;4416807;32;20080;-68
2022/04/20 11:21:07;;;;;;;0.40;0.40;;;11.90;99.90;;;;;;4429662;32;20210;-69
2022/04/20 11:24:11;;;;;;;0.30;0.30;;;11.90;99.90;;;;;;4425542;32;20061;-69
2022/04/20 11:26:39;;;;;;;0.40;0.40;;;11.90;99.90;;;;;;4421339;32;20085;-69
2022/04/20 11:29:15;;;;;;;3.78;0.77;;;11.90;99.90;;;;;;4429694;32;20068;-69
2022/04/20 11:31:45;;;;;;;0.40;0.40;;;11.90;99.90;;;;;;4430636;32;20151;-69
2022/04/20 11:34:11;;;;;;;0.40;0.40;;;11.70;99.90;;;;;;4430020;32;20065;-67
2022/04/20 11:36:43;;;;;;;0.40;0.40;;;11.80;99.90;;;;;;4432289;32;20490;-67
2022/04/20 11:39:09;;;;;;;0.40;0.40;;;11.70;99.90;;;;;;4434364;32;20065;-67
2022/04/20 11:41:35;;;;;;;0.30;0.30;;;11.80;99.90;;;;;;4426299;32;20513;-68
2022/04/20 11:44:02;;;;;;;0.22;0.22;;;11.70;99.90;;;;;;4421268;32;20564;-69
2022/04/20 11:46:27;;;;;;;0.50;0.50;;;11.80;99.90;;;;;;4430179;32;21038;-69
2022/04/20 11:48:54;;;;;;;0.40;0.40;;;11.90;99.90;;;;;;4430366;32;20086;-69
2022/04/20 11:51:24;;;;;;;2.17;0.50;;;12.00;99.90;;;;;;4430820;32;20086;-68
2022/04/20 11:53:51;;;;;;;0.50;0.50;;;12.00;99.90;;;;;;4427870;32;20089;-68
2022/04/20 11:56:16;;;;;;;0.30;0.30;;;12.10;99.90;;;;;;4431083;32;20090;-68
2022/04/20 11:58:49;;;;;;;0.35;0.35;;;12.10;99.90;;;;;;4431405;32;20671;-69
2022/04/20 12:01:15;;;;;;;0.40;0.40;;;12.20;99.90;;;;;;4431339;32;20088;-68
2022/04/20 12:03:42;;;;;;;0.47;0.47;;;12.30;99.90;;;;;;4424664;32;20078;-68
2022/04/20 12:06:10;;;;;;;0.40;0.40;;;12.40;99.90;;;;;;4427522;32;20538;-68
2022/04/20 12:08:41;;;;;;;0.47;0.47;;;12.40;99.90;;;;;;4429457;32;20415;-68
2022/04/20 12:11:11;;;;;;;0.30;0.30;;;12.40;99.90;;;;;;4428579;32;20588;-68
2022/04/20 12:13:39;;;;;;;0.70;0.70;;;12.50;99.90;;;;;;4416374;32;20085;-68
2022/04/20 12:16:08;;;;;;;0.30;0.30;;;12.90;99.90;;;;;;4430929;32;20143;-68
2022/04/20 12:18:36;;;;;;;0.50;0.50;;;13.20;99.90;;;;;;4430296;32;20092;-68
2022/04/20 12:21:03;;;;;;;2.03;1.17;;;13.20;99.90;;;;;;4430008;32;20533;-67
2022/04/20 12:23:33;;;;;;;0.50;0.50;;;13.20;99.90;;;;;;4424542;32;20107;-68
2022/04/20 12:26:01;;;;;;;0.80;0.73;;;13.20;99.90;;;;;;4426763;32;20140;-68
2022/04/20 12:28:41;;;;;;;0.37;0.37;;;13.30;99.90;;;;;;4427393;32;20068;-68
2022/04/20 12:31:08;;;;;;;5.28;0.65;;;13.30;99.90;;;;;;4431864;32;20085;-68
2022/04/20 12:33:34;;;;;;;0.40;0.40;;;13.40;99.90;;;;;;4425130;32;20086;-68
2022/04/20 12:36:01;;;;;;;0.40;0.40;;;13.50;99.90;;;;;;4429945;32;20073;-68
2022/04/20 12:38:28;;;;;;;0.37;0.37;;;13.80;99.90;;;;;;4428824;32;20069;-68
2022/04/20 12:40:53;;;;;;;0.30;0.30;;;14.20;99.90;;;;;;4430370;32;20069;-68
2022/04/20 12:43:19;;;;;;;0.50;0.50;;;14.50;99.90;;;;;;4419894;32;20065;-68
2022/04/20 12:45:45;;;;;;;0.28;0.28;;;14.70;99.90;;;;;;4436855;32;20106;-68
2022/04/20 12:48:11;;;;;;;0.30;0.30;;;15.10;99.90;;;;;;4434727;32;20085;-68
2022/04/20 12:50:38;;;;;;;0.30;0.30;;;15.30;99.70;;;;;;4436323;32;20089;-69
2022/04/20 12:53:04;;;;;;;0.90;0.52;;;15.40;99.30;;;;;;4432531;32;20073;-68
2022/04/20 12:55:36;;;;;;;0.50;0.50;;;15.20;98.80;;;;;;4432871;32;20441;-68
2022/04/20 13:02:01;;;;;;;0.30;0.30;;;15.00;99.70;;;;;;4432199;32;20410;-68
2022/04/20 13:03:40;;;;;;;0.43;0.43;;;14.80;99.80;;;;;;4426916;32;20487;-69
2022/04/20 13:06:10;;;;;;;0.50;0.50;;;14.90;99.10;;;;;;4434359;32;20078;-69
2022/04/20 13:08:37;;;;;;;0.77;0.77;;;15.00;99.00;;;;;;4431802;32;20073;-68
2022/04/20 13:11:03;;;;;;;0.45;0.40;;;14.90;98.90;;;;;;4434706;32;20062;-69